Time;durP1;ratioP1;P1;durP2;ratioP2;P2;SDS_P1;SDS_P2;PMS_P1;PMS_P2;Temp;Humidity;BMP_temperature;BMP_pressure;BME280_temperature;BME280_humidity;BME280_pressure;Samples;Min_cycle;Max_cycle;Signal;HPM_P1;HPM_P2
2021/03/18 00:05:43;;;;;;;0.20;0.10;;;12.40;99.90;;;;;;20528875;28;20263;-76
2021/03/18 00:15:46;;;;;;;3.67;0.87;;;12.50;99.90;;;;;;20529562;28;20700;-75
2021/03/18 00:25:50;;;;;;;0.20;0.20;;;12.40;99.90;;;;;;20542839;28;20248;-74
2021/03/18 00:35:52;;;;;;;0.20;0.20;;;12.00;99.90;;;;;;20542016;28;20621;-75
2021/03/18 00:45:56;;;;;;;0.87;0.50;;;11.70;99.90;;;;;;20541459;28;20589;-76
2021/03/18 00:56:00;;;;;;;0.93;0.67;;;11.60;99.90;;;;;;20540692;28;20555;-75
2021/03/18 01:06:07;;;;;;;0.33;0.33;;;11.20;99.90;;;;;;20540059;28;20232;-75
2021/03/18 01:16:13;;;;;;;0.40;0.40;;;11.10;99.90;;;;;;20538393;28;20387;-75
2021/03/18 01:26:16;;;;;;;0.20;0.20;;;10.60;99.90;;;;;;20535360;28;20685;-76
2021/03/18 01:36:19;;;;;;;0.20;0.10;;;10.20;99.90;;;;;;20537367;28;20276;-75
2021/03/18 01:46:23;;;;;;;0.30;0.30;;;10.40;99.90;;;;;;20535091;28;20226;-76
2021/03/18 01:56:26;;;;;;;0.20;0.10;;;10.00;99.90;;;;;;20535997;28;20279;-76
2021/03/18 02:06:30;;;;;;;0.80;0.30;;;9.90;99.90;;;;;;20562745;23;20327;-68
2021/03/18 02:16:36;;;;;;;1.30;0.70;;;10.10;99.90;;;;;;20537025;28;20207;-68
2021/03/18 02:27:18;;;;;;;0.20;0.20;;;10.10;99.90;;;;;;20453870;29;20708;-68
2021/03/18 02:37:23;;;;;;;6.87;1.57;;;10.00;99.90;;;;;;20505231;28;20204;-70
2021/03/18 02:47:28;;;;;;;6.43;1.10;;;10.00;99.90;;;;;;20533465;28;20223;-69
2021/03/18 02:57:34;;;;;;;0.40;0.40;;;10.00;99.90;;;;;;20532678;28;20208;-69
2021/03/18 03:07:40;;;;;;;0.30;0.30;;;9.80;99.90;;;;;;20544451;23;20243;-78
2021/03/18 03:17:45;;;;;;;0.20;0.20;;;9.90;99.90;;;;;;20528672;28;20207;-76
2021/03/18 03:27:48;;;;;;;0.60;0.60;;;9.90;99.90;;;;;;20531409;28;20263;-76
2021/03/18 03:37:52;;;;;;;0.30;0.30;;;9.90;99.90;;;;;;20526967;28;20196;-74
2021/03/18 03:47:55;;;;;;;0.97;0.80;;;9.70;99.90;;;;;;20528150;28;20682;-73
2021/03/18 03:58:01;;;;;;;0.33;0.30;;;9.70;99.90;;;;;;20542261;28;20203;-73
2021/03/18 04:08:07;;;;;;;2.40;1.10;;;9.70;99.90;;;;;;20545333;28;20893;-75
2021/03/18 04:18:12;;;;;;;0.90;0.77;;;9.60;99.90;;;;;;20526478;28;20525;-76
2021/03/18 04:28:17;;;;;;;0.30;0.20;;;9.80;99.90;;;;;;20464002;28;20690;-73
2021/03/18 04:38:21;;;;;;;1.23;0.63;;;9.70;99.90;;;;;;20519859;28;20617;-74
2021/03/18 04:48:23;;;;;;;0.30;0.30;;;9.40;99.90;;;;;;20540683;28;20692;-74
2021/03/18 04:58:28;;;;;;;0.20;0.10;;;9.40;99.90;;;;;;20538839;28;20201;-76
2021/03/18 05:08:36;;;;;;;0.30;0.30;;;9.50;99.90;;;;;;20541491;28;20235;-77
2021/03/18 05:18:40;;;;;;;0.20;0.10;;;9.30;99.90;;;;;;20521857;28;20193;-73
2021/03/18 05:28:43;;;;;;;1.03;0.63;;;9.20;99.90;;;;;;20460488;29;20241;-73
2021/03/18 05:38:47;;;;;;;0.20;0.10;;;9.00;99.90;;;;;;20459331;29;20543;-74
2021/03/18 05:48:50;;;;;;;0.53;0.50;;;8.90;99.90;;;;;;20456932;29;20634;-73
2021/03/18 05:58:54;;;;;;;0.20;0.10;;;9.00;99.90;;;;;;20456891;29;20457;-74
2021/03/18 06:08:57;;;;;;;0.20;0.10;;;9.10;99.90;;;;;;20452483;29;20240;-70
2021/03/18 06:19:04;;;;;;;1.80;0.57;;;9.10;99.90;;;;;;20474227;28;20196;-74
2021/03/18 06:29:28;;;;;;;0.20;0.10;;;9.10;99.90;;;;;;20530842;28;20243;-75
2021/03/18 06:39:32;;;;;;;0.30;0.30;;;8.90;99.90;;;;;;20529919;28;20649;-76
2021/03/18 06:49:36;;;;;;;0.60;0.60;;;9.00;99.90;;;;;;20533108;28;20871;-76
2021/03/18 06:59:42;;;;;;;0.20;0.20;;;9.00;99.90;;;;;;20527468;28;20259;-73
2021/03/18 07:09:48;;;;;;;0.40;0.40;;;9.80;99.90;;;;;;20524845;28;20282;-73
2021/03/18 07:19:54;;;;;;;0.20;0.10;;;10.10;99.90;;;;;;20500111;28;20193;-77
2021/03/18 07:29:56;;;;;;;0.20;0.20;;;10.40;99.90;;;;;;20465599;28;20224;-74
2021/03/18 07:40:02;;;;;;;0.20;0.10;;;10.20;99.90;;;;;;20546797;28;20210;-77
2021/03/18 07:50:09;;;;;;;0.50;0.50;;;10.70;99.90;;;;;;20552400;28;20255;-73
2021/03/18 08:00:15;;;;;;;2.20;0.90;;;11.70;99.90;;;;;;20529299;28;20488;-74
2021/03/18 08:10:39;;;;;;;3.80;0.27;;;12.20;99.90;;;;;;20478682;28;20236;-78
2021/03/18 08:21:01;;;;;;;0.50;0.50;;;12.70;99.90;;;;;;20484982;28;20631;-77
2021/03/18 08:31:05;;;;;;;0.90;0.70;;;13.10;99.90;;;;;;20477190;28;20221;-75
2021/03/18 08:41:09;;;;;;;0.33;0.33;;;13.30;99.90;;;;;;20475857;28;20712;-75
2021/03/18 08:51:12;;;;;;;0.20;0.20;;;13.30;99.90;;;;;;20482330;28;20553;-74
2021/03/18 09:01:18;;;;;;;0.87;0.80;;;13.80;99.90;;;;;;20488663;28;20291;-74
2021/03/18 09:11:27;;;;;;;0.47;0.47;;;14.40;99.90;;;;;;20489910;28;20272;-74
2021/03/18 09:21:43;;;;;;;0.30;0.30;;;14.50;99.90;;;;;;20491215;28;20243;-74
2021/03/18 09:31:45;;;;;;;0.37;0.37;;;14.20;99.90;;;;;;20472867;28;20197;-73
2021/03/18 09:41:49;;;;;;;8.70;0.47;;;13.70;99.90;;;;;;20506776;28;20606;-73
2021/03/18 09:51:54;;;;;;;0.20;0.20;;;13.80;99.90;;;;;;20531401;28;20204;-73
2021/03/18 10:01:58;;;;;;;0.70;0.57;;;14.00;99.90;;;;;;20533214;28;20224;-75
2021/03/18 10:12:03;;;;;;;0.27;0.23;;;14.20;99.90;;;;;;20451357;28;20209;-74
2021/03/18 10:22:08;;;;;;;6.03;0.83;;;14.20;99.90;;;;;;20492786;28;20279;-76
2021/03/18 10:32:12;;;;;;;0.20;0.10;;;14.60;99.90;;;;;;20477776;28;20200;-78
2021/03/18 10:42:16;;;;;;;0.30;0.30;;;15.00;99.90;;;;;;20533699;28;20228;-79
2021/03/18 10:52:19;;;;;;;1.70;0.67;;;15.10;99.90;;;;;;20532180;28;20208;-77
2021/03/18 11:02:25;;;;;;;0.20;0.10;;;16.10;99.90;;;;;;20530569;28;20504;-75
2021/03/18 11:12:28;;;;;;;0.20;0.10;;;16.40;99.90;;;;;;20527203;28;20289;-74
2021/03/18 11:22:32;;;;;;;0.20;0.10;;;17.10;99.90;;;;;;20530384;28;20239;-75
2021/03/18 11:32:36;;;;;;;0.20;0.10;;;17.50;99.90;;;;;;20471058;28;20214;-76
2021/03/18 11:42:40;;;;;;;0.20;0.10;;;17.60;99.90;;;;;;20527725;28;20236;-76
2021/03/18 11:52:42;;;;;;;0.20;0.10;;;18.00;99.90;;;;;;20526164;28;20346;-72
2021/03/18 12:02:46;;;;;;;4.47;0.57;;;18.70;99.90;;;;;;20449446;28;20252;-75
2021/03/18 12:13:09;;;;;;;3.40;0.30;;;18.70;99.90;;;;;;20481025;28;20557;-75
2021/03/18 12:23:13;;;;;;;1.90;0.83;;;18.20;99.90;;;;;;20481530;28;20225;-74
2021/03/18 12:33:17;;;;;;;0.20;0.10;;;16.90;99.90;;;;;;20486386;28;20203;-74
2021/03/18 12:43:22;;;;;;;0.50;0.40;;;16.60;99.90;;;;;;20519139;28;20225;-75
2021/03/18 12:53:25;;;;;;;0.37;0.37;;;16.00;99.90;;;;;;20511146;28;20231;-73
2021/03/18 13:03:31;;;;;;;0.20;0.20;;;17.20;99.90;;;;;;20523209;28;20244;-75
2021/03/18 13:13:34;;;;;;;0.20;0.20;;;18.80;99.90;;;;;;20481200;28;20200;-74
2021/03/18 13:23:38;;;;;;;0.63;0.47;;;19.50;99.90;;;;;;20511869;28;20238;-73
2021/03/18 13:33:41;;;;;;;0.60;0.60;;;21.60;99.90;;;;;;20498838;28;20657;-76
2021/03/18 13:43:45;;;;;;;14.63;0.77;;;20.40;99.90;;;;;;20496530;28;20340;-77
2021/03/18 13:53:49;;;;;;;1.00;0.83;;;21.10;99.90;;;;;;20452743;29;20196;-75
2021/03/18 14:03:52;;;;;;;0.40;0.10;;;22.60;99.90;;;;;;20463107;28;20327;-75
2021/03/18 14:13:55;;;;;;;0.30;0.30;;;21.70;99.90;;;;;;20463222;28;20201;-74
2021/03/18 14:23:59;;;;;;;1.40;0.40;;;20.50;99.90;;;;;;20511412;28;20227;-75
2021/03/18 14:34:02;;;;;;;3.80;1.63;;;18.00;99.90;;;;;;20530534;28;20196;-75
2021/03/18 14:44:06;;;;;;;17.43;1.40;;;17.80;99.90;;;;;;20530198;28;20235;-74
2021/03/18 14:54:10;;;;;;;6.57;1.70;;;18.40;99.90;;;;;;20528446;28;20200;-75
2021/03/18 15:04:14;;;;;;;0.53;0.53;;;18.00;99.90;;;;;;20528075;28;20247;-73
2021/03/18 15:14:19;;;;;;;0.37;0.33;;;17.80;99.90;;;;;;20526103;28;20200;-71
2021/03/18 15:24:22;;;;;;;1.17;0.87;;;20.10;99.90;;;;;;20492288;28;20671;-72
2021/03/18 15:34:25;;;;;;;8.97;0.57;;;21.20;99.90;;;;;;20490578;28;20196;-74
2021/03/18 15:44:28;;;;;;;2.30;1.20;;;21.60;99.90;;;;;;20500854;28;20311;-72
2021/03/18 15:54:31;;;;;;;3.20;0.50;;;19.40;99.90;;;;;;20459861;28;20439;-74
2021/03/18 16:04:35;;;;;;;0.20;0.10;;;17.10;99.90;;;;;;20521953;28;20235;-74
2021/03/18 16:14:38;;;;;;;0.20;0.10;;;17.90;99.90;;;;;;20499033;28;20200;-73
2021/03/18 16:24:42;;;;;;;0.20;0.03;;;16.10;99.90;;;;;;20513693;28;20248;-72
2021/03/18 16:34:45;;;;;;;1.70;0.60;;;15.60;99.90;;;;;;20511465;28;20339;-74
2021/03/18 16:44:48;;;;;;;0.97;0.17;;;14.80;99.90;;;;;;20538335;28;21050;-73
2021/03/18 16:54:51;;;;;;;0.20;0.10;;;14.70;99.90;;;;;;20536480;28;20208;-73
2021/03/18 17:04:55;;;;;;;0.60;0.47;;;14.60;99.90;;;;;;20535998;28;20318;-77
2021/03/18 17:14:59;;;;;;;0.20;0.10;;;14.20;99.90;;;;;;20534569;28;20211;-74
2021/03/18 17:25:06;;;;;;;0.70;0.50;;;13.90;99.90;;;;;;20484169;28;20236;-74
2021/03/18 17:35:10;;;;;;;0.77;0.77;;;13.80;99.90;;;;;;20505123;28;20662;-74
2021/03/18 17:45:15;;;;;;;0.20;0.20;;;13.60;99.90;;;;;;20531211;28;20322;-73
2021/03/18 17:55:20;;;;;;;0.20;0.10;;;13.50;99.90;;;;;;20530812;28;20196;-74
2021/03/18 18:05:24;;;;;;;0.70;0.50;;;13.40;99.90;;;;;;20533030;28;20236;-76
2021/03/18 18:15:28;;;;;;;4.10;1.33;;;13.30;99.90;;;;;;20530537;28;20200;-75
2021/03/18 18:25:32;;;;;;;0.70;0.50;;;13.40;99.90;;;;;;20531165;28;20489;-74
2021/03/18 18:35:35;;;;;;;3.43;0.87;;;13.40;99.90;;;;;;20526987;28;20676;-71
2021/03/18 18:45:39;;;;;;;0.70;0.63;;;13.30;99.90;;;;;;20529512;28;20240;-74
2021/03/18 18:55:42;;;;;;;0.40;0.37;;;12.80;99.90;;;;;;20527808;28;20205;-75
2021/03/18 19:05:45;;;;;;;0.30;0.27;;;12.70;99.90;;;;;;20520387;28;20240;-74
2021/03/18 19:15:48;;;;;;;0.87;0.63;;;12.80;99.90;;;;;;20429888;29;20441;-74
2021/03/18 19:25:52;;;;;;;0.20;0.20;;;12.70;99.90;;;;;;20515241;28;20231;-75
2021/03/18 19:35:55;;;;;;;0.67;0.67;;;11.40;99.90;;;;;;20525557;28;20576;-75
2021/03/18 19:46:02;;;;;;;0.20;0.20;;;10.80;99.90;;;;;;20526074;28;20242;-75
2021/03/18 19:56:06;;;;;;;1.70;0.63;;;10.20;99.90;;;;;;20525640;28;20206;-75
2021/03/18 20:06:09;;;;;;;0.20;0.10;;;10.00;99.90;;;;;;20526974;28;20239;-74
2021/03/18 20:16:12;;;;;;;0.20;0.10;;;9.70;99.90;;;;;;20515773;28;20211;-74
2021/03/18 20:26:35;;;;;;;0.30;0.30;;;9.60;99.90;;;;;;20522235;28;20224;-75
2021/03/18 20:36:38;;;;;;;1.13;0.63;;;9.40;99.90;;;;;;20533334;28;20560;-75
2021/03/18 20:46:41;;;;;;;0.73;0.73;;;9.20;99.90;;;;;;20538628;28;20291;-73
2021/03/18 20:56:44;;;;;;;0.20;0.20;;;9.60;99.90;;;;;;20489911;28;20709;-76
2021/03/18 21:06:48;;;;;;;3.93;1.07;;;9.20;99.90;;;;;;20503421;28;21125;-77
2021/03/18 21:16:52;;;;;;;0.20;0.10;;;9.30;99.90;;;;;;20492246;28;20193;-72
2021/03/18 21:26:56;;;;;;;0.20;0.20;;;8.90;99.90;;;;;;20497088;28;20601;-76
2021/03/18 21:37:00;;;;;;;0.20;0.10;;;8.40;99.90;;;;;;20497647;28;20602;-76
2021/03/18 21:47:03;;;;;;;0.20;0.10;;;8.40;99.90;;;;;;20494698;28;20215;-74
2021/03/18 21:57:07;;;;;;;0.20;0.10;;;8.30;99.90;;;;;;20495437;28;20200;-73
2021/03/18 22:07:10;;;;;;;0.20;0.10;;;8.10;99.90;;;;;;20493198;28;20238;-74
2021/03/18 22:17:33;;;;;;;0.20;0.07;;;7.90;99.90;;;;;;20487354;28;20231;-73
2021/03/18 22:27:38;;;;;;;0.20;0.10;;;7.80;99.90;;;;;;20534476;28;20682;-72
2021/03/18 22:37:44;;;;;;;0.20;0.10;;;8.00;99.90;;;;;;20535442;28;20355;-72
2021/03/18 22:47:48;;;;;;;0.30;0.30;;;7.90;99.90;;;;;;20532297;28;20228;-73
2021/03/18 22:57:51;;;;;;;0.20;0.10;;;8.00;99.90;;;;;;20532551;28;20223;-73
2021/03/18 23:07:54;;;;;;;0.20;0.10;;;7.80;99.90;;;;;;20528552;28;20591;-73
2021/03/18 23:17:59;;;;;;;0.20;0.10;;;7.70;99.90;;;;;;20521097;28;20207;-72
2021/03/18 23:28:03;;;;;;;0.20;0.00;;;7.20;99.90;;;;;;20448416;28;20228;-72
2021/03/18 23:38:05;;;;;;;0.20;0.10;;;7.30;99.90;;;;;;20452451;28;20598;-73
2021/03/18 23:48:09;;;;;;;0.20;0.13;;;7.20;99.90;;;;;;20449329;28;20239;-73
2021/03/18 23:58:12;;;;;;;0.20;0.10;;;7.10;99.90;;;;;;20450244;28;20298;-72
